Time;durP1;ratioP1;P1;durP2;ratioP2;P2;SDS_P1;SDS_P2;PMS_P1;PMS_P2;Temp;Humidity;BMP_temperature;BMP_pressure;BME280_temperature;BME280_humidity;BME280_pressure;Samples;Min_cycle;Max_cycle;Signal;HPM_P1;HPM_P2
2022/04/24 00:01:26;;;;;;;4.50;3.08;;;11.20;99.90;;;;;;5077707;28;20028;-63
2022/04/24 00:03:51;;;;;;;4.70;3.20;;;11.20;99.90;;;;;;5095579;28;20028;-63
2022/04/24 00:06:17;;;;;;;6.05;3.25;;;11.10;99.90;;;;;;5077491;28;20032;-63
2022/04/24 00:08:43;;;;;;;4.45;3.28;;;11.10;99.90;;;;;;5095545;28;20031;-61
2022/04/24 00:11:08;;;;;;;4.25;2.83;;;11.10;99.90;;;;;;5095577;28;20016;-63
2022/04/24 00:13:41;;;;;;;4.70;2.83;;;11.10;99.90;;;;;;5077442;28;20060;-63
2022/04/24 00:16:10;;;;;;;5.72;3.45;;;11.10;99.90;;;;;;5076466;28;20077;-63
2022/04/24 00:18:38;;;;;;;5.30;3.22;;;11.10;99.90;;;;;;5095415;28;20024;-63
2022/04/24 00:21:04;;;;;;;4.93;3.40;;;11.00;99.90;;;;;;5077396;28;20055;-63
2022/04/24 00:23:31;;;;;;;4.43;2.97;;;11.00;99.90;;;;;;5095162;28;20082;-63
2022/04/24 00:25:57;;;;;;;4.45;2.97;;;11.00;99.90;;;;;;5095823;28;20065;-63
2022/04/24 00:28:23;;;;;;;4.55;2.80;;;11.00;99.90;;;;;;5078013;28;20028;-63
2022/04/24 00:30:48;;;;;;;3.88;2.90;;;11.00;99.90;;;;;;5077084;28;20020;-63
2022/04/24 00:33:14;;;;;;;4.28;3.45;;;11.00;99.90;;;;;;5095129;28;20111;-63
2022/04/24 00:35:40;;;;;;;5.65;3.28;;;11.00;99.90;;;;;;5077074;28;20114;-63
2022/04/24 00:38:05;;;;;;;6.25;3.50;;;10.90;99.90;;;;;;5076898;28;20025;-63
2022/04/24 00:40:31;;;;;;;4.65;3.05;;;10.90;99.90;;;;;;5076816;28;20031;-63
2022/04/24 00:42:56;;;;;;;4.32;3.25;;;10.90;99.90;;;;;;5076876;28;20028;-63
2022/04/24 00:45:22;;;;;;;4.05;3.20;;;10.90;99.90;;;;;;5077031;28;20024;-63
2022/04/24 00:47:48;;;;;;;4.35;2.90;;;10.90;99.90;;;;;;5094847;28;20023;-62
2022/04/24 00:50:14;;;;;;;4.80;3.00;;;10.90;99.90;;;;;;5076983;28;20027;-63
2022/04/24 00:52:40;;;;;;;4.70;3.05;;;10.90;99.90;;;;;;5076400;28;20028;-63
2022/04/24 00:55:07;;;;;;;5.47;3.70;;;10.80;99.90;;;;;;5094915;28;20076;-63
2022/04/24 00:57:32;;;;;;;4.32;2.95;;;10.80;99.90;;;;;;5077081;28;20023;-63
2022/04/24 00:59:58;;;;;;;4.63;2.85;;;10.80;99.90;;;;;;5077061;28;20024;-63
2022/04/24 01:02:24;;;;;;;5.82;3.15;;;10.80;99.90;;;;;;5077520;28;20020;-63
2022/04/24 01:04:50;;;;;;;4.93;3.10;;;10.70;99.90;;;;;;5095227;28;20055;-64
2022/04/24 01:07:15;;;;;;;7.03;3.45;;;10.70;99.90;;;;;;5076348;28;20062;-64
2022/04/24 01:09:41;;;;;;;4.75;3.20;;;10.70;99.90;;;;;;5094899;28;20020;-63
2022/04/24 01:12:07;;;;;;;10.88;3.40;;;10.70;99.90;;;;;;5094628;28;20028;-63
2022/04/24 01:14:34;;;;;;;7.00;3.20;;;10.70;99.90;;;;;;5094748;28;20088;-63
2022/04/24 01:17:02;;;;;;;6.85;3.78;;;10.70;99.90;;;;;;5094350;28;20047;-64
2022/04/24 01:19:28;;;;;;;6.38;3.35;;;10.60;99.90;;;;;;5075841;28;20024;-62
2022/04/24 01:21:55;;;;;;;5.07;3.38;;;10.60;99.90;;;;;;5075690;28;20131;-63
2022/04/24 01:24:23;;;;;;;5.85;3.30;;;10.60;99.90;;;;;;5094230;28;20024;-62
2022/04/24 01:26:49;;;;;;;5.25;3.70;;;10.60;99.90;;;;;;5076532;28;20024;-63
2022/04/24 01:29:16;;;;;;;6.45;3.72;;;10.60;99.90;;;;;;5075807;28;20089;-64
2022/04/24 01:31:48;;;;;;;5.13;3.35;;;10.60;99.90;;;;;;5075814;28;20031;-62
2022/04/24 01:34:14;;;;;;;5.93;3.22;;;10.60;99.90;;;;;;5075881;28;20032;-63
2022/04/24 01:36:40;;;;;;;3.75;3.13;;;10.60;99.90;;;;;;5075648;28;20055;-63
2022/04/24 01:39:06;;;;;;;5.03;3.72;;;10.50;99.90;;;;;;5075861;28;20066;-63
2022/04/24 01:41:32;;;;;;;5.07;3.95;;;10.50;99.90;;;;;;5075453;28;20047;-63
2022/04/24 01:43:58;;;;;;;5.15;3.55;;;10.50;99.90;;;;;;5075411;28;20020;-63
2022/04/24 01:46:24;;;;;;;6.53;4.18;;;10.50;99.90;;;;;;5075474;28;20043;-62
2022/04/24 01:48:50;;;;;;;5.45;3.55;;;10.50;99.90;;;;;;5075613;28;20378;-63
2022/04/24 01:51:16;;;;;;;5.10;3.30;;;10.50;99.90;;;;;;5093241;28;20032;-63
2022/04/24 01:53:42;;;;;;;4.28;3.42;;;10.40;99.90;;;;;;5093487;28;20028;-64
2022/04/24 01:56:08;;;;;;;4.70;3.78;;;10.40;99.90;;;;;;5075966;28;20025;-63
2022/04/24 01:58:35;;;;;;;4.32;3.42;;;10.40;99.90;;;;;;5093724;28;20027;-62
2022/04/24 02:01:02;;;;;;;4.18;3.40;;;10.40;99.90;;;;;;5093638;28;20050;-63
2022/04/24 02:03:29;;;;;;;6.65;4.30;;;10.50;99.90;;;;;;5075815;28;20054;-63
2022/04/24 02:05:55;;;;;;;5.25;4.03;;;10.50;99.90;;;;;;5093751;28;20020;-62
2022/04/24 02:08:21;;;;;;;5.75;4.18;;;10.50;99.90;;;;;;5075143;28;20020;-64
2022/04/24 02:10:47;;;;;;;7.38;3.97;;;10.50;99.90;;;;;;5093293;28;20020;-64
2022/04/24 02:13:13;;;;;;;7.05;4.00;;;10.50;99.90;;;;;;5093330;28;20062;-63
2022/04/24 02:15:38;;;;;;;5.30;4.05;;;10.40;99.90;;;;;;5075421;28;20028;-63
2022/04/24 02:18:04;;;;;;;6.22;3.95;;;10.50;99.90;;;;;;5074967;28;20027;-63
2022/04/24 02:20:30;;;;;;;4.90;3.80;;;10.50;99.90;;;;;;5093048;28;20020;-64
2022/04/24 02:22:57;;;;;;;5.68;4.03;;;10.50;99.90;;;;;;5093059;28;20035;-63
2022/04/24 02:25:27;;;;;;;4.35;3.20;;;10.50;99.90;;;;;;5093413;28;20016;-61
2022/04/24 02:27:54;;;;;;;5.35;4.03;;;10.50;99.90;;;;;;5074938;28;20035;-63
2022/04/24 02:30:25;;;;;;;6.07;4.00;;;10.50;99.90;;;;;;5074916;28;20028;-63
2022/04/24 02:32:51;;;;;;;5.60;3.73;;;10.50;99.90;;;;;;5093255;28;20028;-63
2022/04/24 02:35:19;;;;;;;6.43;3.55;;;10.40;99.90;;;;;;5093234;28;20269;-63
2022/04/24 02:37:44;;;;;;;4.50;3.30;;;10.40;99.90;;;;;;5074778;28;20035;-63
2022/04/24 02:40:11;;;;;;;5.93;3.63;;;10.40;99.90;;;;;;5092180;28;20024;-63
2022/04/24 02:42:38;;;;;;;6.88;4.63;;;10.50;99.90;;;;;;5074639;28;20086;-63
2022/04/24 02:45:05;;;;;;;4.43;3.53;;;10.40;99.90;;;;;;5074592;28;20024;-63
2022/04/24 02:47:30;;;;;;;4.82;3.80;;;10.40;99.90;;;;;;5092844;28;20020;-63
2022/04/24 02:49:56;;;;;;;5.40;3.60;;;10.40;99.90;;;;;;5092768;28;20027;-61
2022/04/24 02:52:22;;;;;;;7.55;4.00;;;10.40;99.90;;;;;;5074574;28;20497;-62
2022/04/24 02:54:47;;;;;;;7.35;4.55;;;10.40;99.90;;;;;;5092662;28;20024;-62
2022/04/24 02:57:13;;;;;;;4.78;3.70;;;10.50;99.90;;;;;;5074783;28;20024;-62
2022/04/24 02:59:42;;;;;;;10.77;5.22;;;10.40;99.90;;;;;;5074553;28;20115;-62
2022/04/24 03:02:09;;;;;;;6.05;4.57;;;10.40;99.90;;;;;;5074393;28;20028;-62
2022/04/24 03:04:35;;;;;;;6.55;4.13;;;10.30;99.90;;;;;;5092764;28;20024;-62
2022/04/24 03:07:01;;;;;;;6.05;4.28;;;10.40;99.90;;;;;;5092630;28;20027;-62
2022/04/24 03:09:26;;;;;;;5.53;4.00;;;10.30;99.90;;;;;;5092707;28;20035;-62
2022/04/24 03:11:52;;;;;;;5.68;4.18;;;10.30;99.90;;;;;;5092521;28;20035;-62
2022/04/24 03:14:17;;;;;;;5.63;4.43;;;10.30;99.90;;;;;;5074355;28;20027;-63
2022/04/24 03:16:43;;;;;;;6.70;3.83;;;10.30;99.90;;;;;;5074554;28;20031;-62
2022/04/24 03:19:09;;;;;;;7.15;4.00;;;10.30;99.90;;;;;;5092368;28;20422;-62
2022/04/24 03:21:34;;;;;;;5.05;4.38;;;10.30;99.90;;;;;;5074371;28;20086;-62
2022/04/24 03:24:00;;;;;;;6.60;4.18;;;10.20;99.90;;;;;;5074203;28;20115;-62
2022/04/24 03:26:26;;;;;;;6.95;4.90;;;10.20;99.90;;;;;;5092515;28;20039;-64
2022/04/24 03:28:51;;;;;;;9.15;4.75;;;10.20;99.90;;;;;;5092563;28;20027;-62
2022/04/24 03:31:17;;;;;;;6.78;4.80;;;10.20;99.90;;;;;;5074911;28;20031;-62
2022/04/24 03:33:43;;;;;;;6.50;4.55;;;10.20;99.90;;;;;;5074172;28;20035;-62
2022/04/24 03:36:09;;;;;;;9.55;4.03;;;10.20;99.90;;;;;;5074963;28;20055;-62
2022/04/24 03:38:34;;;;;;;5.93;4.32;;;10.10;99.90;;;;;;5074283;28;20030;-62
2022/04/24 03:41:01;;;;;;;8.13;4.57;;;10.10;99.90;;;;;;5073983;28;20032;-62
2022/04/24 03:43:26;;;;;;;7.15;4.97;;;10.10;99.90;;;;;;5092068;28;20031;-64
2022/04/24 03:45:52;;;;;;;8.27;5.32;;;10.20;99.90;;;;;;5091941;28;20050;-64
2022/04/24 03:48:18;;;;;;;8.30;4.75;;;10.10;99.90;;;;;;5073883;28;20020;-61
2022/04/24 03:51:00;;;;;;;7.93;4.55;;;10.10;99.90;;;;;;5083030;28;20134;-61
2022/04/24 03:53:26;;;;;;;10.43;5.05;;;10.20;99.90;;;;;;5058538;28;20063;-61
2022/04/24 03:55:52;;;;;;;6.88;4.80;;;10.20;99.90;;;;;;5075452;28;20029;-61
2022/04/24 03:58:18;;;;;;;8.07;5.43;;;10.10;99.90;;;;;;5058056;28;20044;-62
2022/04/24 04:00:43;;;;;;;7.10;4.80;;;10.10;99.90;;;;;;5057936;28;20025;-62
2022/04/24 04:03:09;;;;;;;7.82;4.50;;;10.10;99.90;;;;;;5057174;28;20035;-61
2022/04/24 04:05:38;;;;;;;11.32;5.10;;;10.10;99.90;;;;;;5075364;28;20024;-63
2022/04/24 04:08:04;;;;;;;6.82;5.28;;;10.10;99.90;;;;;;5057578;28;20049;-64
2022/04/24 04:10:30;;;;;;;7.15;5.25;;;10.20;99.90;;;;;;5075380;28;20020;-63
2022/04/24 04:12:56;;;;;;;7.40;5.15;;;10.10;99.90;;;;;;5075428;28;20028;-63
2022/04/24 04:15:21;;;;;;;7.22;4.50;;;10.10;99.90;;;;;;5075096;28;20029;-63
2022/04/24 04:17:47;;;;;;;7.65;5.05;;;10.10;99.90;;;;;;5075155;28;20075;-63
2022/04/24 04:20:13;;;;;;;9.15;6.05;;;10.20;99.90;;;;;;5075464;28;20036;-62
2022/04/24 04:22:48;;;;;;;8.32;4.97;;;10.20;99.90;;;;;;5056968;28;20023;-63
2022/04/24 04:25:14;;;;;;;7.80;5.22;;;10.20;99.90;;;;;;5057318;28;20112;-62
2022/04/24 04:27:40;;;;;;;8.07;5.45;;;10.30;99.90;;;;;;5056996;28;20107;-63
2022/04/24 04:30:06;;;;;;;8.10;5.68;;;10.30;99.90;;;;;;5074896;28;20050;-62
2022/04/24 04:32:31;;;;;;;10.52;5.75;;;10.30;99.90;;;;;;5075420;28;20020;-61
2022/04/24 04:34:57;;;;;;;9.20;5.32;;;10.30;99.90;;;;;;5075391;28;20089;-62
2022/04/24 04:37:23;;;;;;;10.13;6.10;;;10.30;99.90;;;;;;5057679;28;20025;-62
2022/04/24 04:39:49;;;;;;;8.07;5.82;;;10.30;99.90;;;;;;5075420;28;20028;-62
2022/04/24 04:42:14;;;;;;;10.27;5.88;;;10.30;99.90;;;;;;5057126;28;20032;-62
2022/04/24 04:44:40;;;;;;;10.95;6.13;;;10.30;99.90;;;;;;5057357;28;20028;-62
2022/04/24 04:47:06;;;;;;;7.95;5.35;;;10.30;99.90;;;;;;5075207;28;20027;-63
2022/04/24 04:49:32;;;;;;;7.30;5.60;;;10.30;99.90;;;;;;5057045;28;20020;-62
2022/04/24 04:51:57;;;;;;;8.88;5.85;;;10.30;99.90;;;;;;5075095;28;20023;-64
2022/04/24 04:54:23;;;;;;;11.48;6.35;;;10.40;99.90;;;;;;5057335;28;20479;-62
2022/04/24 04:56:49;;;;;;;8.90;5.95;;;10.50;99.90;;;;;;5074893;28;20066;-64
2022/04/24 04:59:14;;;;;;;8.25;5.90;;;10.60;99.90;;;;;;5075115;28;20024;-63
2022/04/24 05:01:40;;;;;;;8.95;6.10;;;10.60;99.90;;;;;;5056329;28;20179;-63
2022/04/24 05:04:05;;;;;;;9.25;5.43;;;10.50;99.90;;;;;;5056992;28;20028;-64
2022/04/24 05:06:32;;;;;;;8.77;5.80;;;10.50;99.90;;;;;;5074782;28;20479;-66
2022/04/24 05:08:57;;;;;;;10.30;6.32;;;10.50;99.90;;;;;;5056908;28;20067;-62
2022/04/24 05:11:23;;;;;;;9.45;5.90;;;10.50;99.90;;;;;;5056837;28;20056;-62
2022/04/24 05:13:48;;;;;;;8.77;5.78;;;10.50;99.90;;;;;;5074533;28;20020;-62
2022/04/24 05:16:14;;;;;;;8.80;6.18;;;10.50;99.90;;;;;;5056638;28;20028;-62
2022/04/24 05:18:39;;;;;;;9.80;6.40;;;10.50;99.90;;;;;;5075015;28;20032;-62
2022/04/24 05:21:05;;;;;;;10.75;6.90;;;10.60;99.90;;;;;;5056708;28;20029;-63
2022/04/24 05:23:31;;;;;;;9.25;6.30;;;10.60;99.90;;;;;;5056339;28;20115;-62
2022/04/24 05:25:58;;;;;;;9.45;6.45;;;10.70;99.90;;;;;;5074477;28;20024;-62
2022/04/24 05:28:23;;;;;;;10.68;7.05;;;10.60;99.90;;;;;;5074484;28;20027;-64
2022/04/24 05:30:49;;;;;;;11.82;6.45;;;10.60;99.90;;;;;;5056204;28;20021;-61
2022/04/24 05:33:18;;;;;;;8.73;5.82;;;10.60;99.90;;;;;;5074342;28;20029;-61
2022/04/24 05:35:44;;;;;;;11.20;6.82;;;10.70;99.90;;;;;;5074300;28;20413;-61
2022/04/24 05:38:10;;;;;;;9.27;6.53;;;10.70;99.90;;;;;;5056080;28;20059;-62
2022/04/24 05:40:36;;;;;;;9.73;6.82;;;10.80;99.90;;;;;;5073994;28;20060;-62
2022/04/24 05:43:01;;;;;;;10.85;6.95;;;10.70;99.90;;;;;;5057251;28;20509;-62
2022/04/24 05:45:27;;;;;;;11.68;6.40;;;10.80;99.90;;;;;;5074257;28;20021;-63
2022/04/24 05:47:54;;;;;;;11.30;6.57;;;10.80;99.90;;;;;;5073962;28;20099;-61
2022/04/24 05:50:23;;;;;;;10.65;6.55;;;10.90;99.90;;;;;;5074220;28;20075;-62
2022/04/24 05:52:49;;;;;;;8.75;6.32;;;11.00;99.90;;;;;;5076008;28;20024;-64
2022/04/24 05:55:15;;;;;;;12.23;6.72;;;11.00;99.90;;;;;;5076023;28;20054;-63
2022/04/24 05:57:41;;;;;;;8.82;6.10;;;11.00;99.90;;;;;;5076043;28;20044;-62
2022/04/24 06:00:09;;;;;;;11.65;6.90;;;11.10;99.90;;;;;;5075990;28;20020;-63
2022/04/24 06:02:34;;;;;;;10.25;6.72;;;11.10;99.90;;;;;;5093862;28;20020;-61
2022/04/24 06:05:00;;;;;;;9.85;6.60;;;11.10;99.90;;;;;;5094610;28;20526;-59
2022/04/24 06:07:26;;;;;;;7.60;5.75;;;11.20;99.90;;;;;;5093966;28;20092;-62
2022/04/24 06:09:52;;;;;;;8.10;6.35;;;11.30;99.90;;;;;;5093888;28;20024;-63
2022/04/24 06:12:17;;;;;;;11.82;5.95;;;11.40;99.90;;;;;;5075667;28;20024;-62
2022/04/24 06:14:43;;;;;;;10.82;7.20;;;11.60;99.90;;;;;;5075803;28;20031;-61
2022/04/24 06:17:09;;;;;;;11.55;7.28;;;11.80;99.90;;;;;;5076130;28;20028;-59
2022/04/24 06:19:34;;;;;;;11.45;7.05;;;11.60;99.90;;;;;;5075536;28;20024;-60
2022/04/24 06:22:00;;;;;;;11.93;7.20;;;11.60;99.90;;;;;;5075596;28;20507;-62
2022/04/24 06:24:26;;;;;;;10.40;7.25;;;11.60;99.90;;;;;;5093540;28;20122;-62
2022/04/24 06:26:52;;;;;;;9.13;6.65;;;11.50;99.90;;;;;;5093521;28;20062;-59
2022/04/24 06:29:17;;;;;;;13.23;7.93;;;11.50;99.90;;;;;;5093595;28;20020;-60
2022/04/24 06:31:43;;;;;;;12.98;7.30;;;11.40;99.90;;;;;;5075345;28;20115;-62
2022/04/24 06:34:10;;;;;;;9.50;6.97;;;11.50;99.90;;;;;;5075997;28;20024;-61
2022/04/24 06:36:36;;;;;;;9.05;6.50;;;11.40;99.90;;;;;;5093814;28;20470;-63
2022/04/24 06:39:01;;;;;;;11.07;7.03;;;11.50;99.90;;;;;;5093744;28;20035;-63
2022/04/24 06:41:28;;;;;;;10.70;6.90;;;11.60;99.90;;;;;;5093396;28;20047;-63
2022/04/24 06:43:53;;;;;;;10.40;7.78;;;11.60;99.90;;;;;;5075254;28;20021;-62
2022/04/24 06:46:19;;;;;;;14.45;7.60;;;11.60;99.90;;;;;;5075674;28;20016;-62
2022/04/24 06:48:45;;;;;;;11.75;8.38;;;11.70;99.90;;;;;;5075746;28;20055;-62
2022/04/24 06:51:10;;;;;;;10.18;7.05;;;11.90;99.90;;;;;;5093309;28;20024;-62
2022/04/24 06:53:38;;;;;;;12.10;7.45;;;11.90;99.90;;;;;;5075421;28;20107;-63
2022/04/24 06:56:04;;;;;;;12.05;7.63;;;12.10;99.90;;;;;;5075962;28;20020;-62
2022/04/24 06:58:30;;;;;;;13.88;8.63;;;12.30;99.90;;;;;;5075168;28;20111;-62
2022/04/24 07:00:56;;;;;;;11.57;8.20;;;12.50;99.90;;;;;;5094002;28;20055;-63
2022/04/24 07:03:22;;;;;;;9.55;7.05;;;13.00;99.90;;;;;;5093174;28;20100;-63
2022/04/24 07:05:53;;;;;;;15.82;8.43;;;13.40;99.90;;;;;;5075200;28;20024;-61
2022/04/24 07:08:19;;;;;;;11.60;7.40;;;13.70;99.90;;;;;;5093660;28;20095;-62
2022/04/24 07:10:45;;;;;;;11.40;7.15;;;13.70;99.90;;;;;;5075110;28;20265;-62
2022/04/24 07:13:10;;;;;;;12.65;8.25;;;13.50;99.90;;;;;;5093293;28;20412;-60
2022/04/24 07:15:38;;;;;;;11.88;7.72;;;13.50;99.90;;;;;;5075012;28;20028;-62
2022/04/24 07:18:05;;;;;;;10.48;7.50;;;13.50;99.90;;;;;;5075215;28;20036;-62
2022/04/24 07:20:31;;;;;;;14.40;7.78;;;13.60;99.90;;;;;;5092765;28;20028;-61
2022/04/24 07:23:00;;;;;;;12.80;7.80;;;13.70;99.90;;;;;;5074660;28;20024;-61
2022/04/24 07:25:27;;;;;;;14.98;8.30;;;13.60;99.90;;;;;;5094628;28;20016;-62
2022/04/24 07:27:53;;;;;;;15.15;8.32;;;13.30;99.90;;;;;;5097327;28;20035;-63
2022/04/24 07:30:20;;;;;;;12.30;8.70;;;13.10;99.90;;;;;;5078989;28;20119;-63
2022/04/24 07:32:54;;;;;;;12.32;8.00;;;12.80;99.90;;;;;;5096837;28;20020;-65
2022/04/24 07:35:23;;;;;;;12.60;8.65;;;12.80;99.90;;;;;;5096847;28;20084;-63
2022/04/24 07:37:49;;;;;;;12.95;8.43;;;12.90;99.90;;;;;;5096665;28;20027;-63
2022/04/24 07:40:17;;;;;;;11.30;8.27;;;13.10;99.90;;;;;;5079133;28;20020;-63
2022/04/24 07:42:57;;;;;;;13.80;8.52;;;13.10;99.90;;;;;;5096474;28;20025;-62
2022/04/24 07:45:37;;;;;;;12.95;7.53;;;13.50;99.90;;;;;;5079150;28;20024;-61
2022/04/24 07:48:05;;;;;;;16.95;8.25;;;13.60;99.90;;;;;;5096768;28;20015;-61
2022/04/24 07:50:37;;;;;;;12.93;7.97;;;13.60;99.90;;;;;;5095191;28;20104;-62
2022/04/24 07:53:04;;;;;;;12.38;8.30;;;13.50;99.90;;;;;;5072081;28;20056;-62
2022/04/24 07:55:30;;;;;;;14.45;8.88;;;13.60;99.90;;;;;;5058068;28;20028;-61
2022/04/24 07:58:00;;;;;;;11.52;8.35;;;13.90;99.90;;;;;;5076046;28;20024;-61
2022/04/24 08:00:28;;;;;;;18.08;8.13;;;14.20;99.90;;;;;;5058058;28;20020;-59
2022/04/24 08:03:01;;;;;;;12.15;8.18;;;13.90;99.90;;;;;;5058155;28;20081;-62
2022/04/24 08:05:26;;;;;;;12.30;8.10;;;13.60;99.90;;;;;;5076375;28;20094;-62
2022/04/24 08:07:53;;;;;;;15.88;7.93;;;13.30;99.90;;;;;;5075903;28;20017;-62
2022/04/24 08:10:21;;;;;;;13.95;7.85;;;12.90;99.90;;;;;;5075860;28;20028;-62
2022/04/24 08:12:47;;;;;;;13.80;8.45;;;12.90;99.90;;;;;;5058507;28;20112;-63
2022/04/24 08:15:14;;;;;;;11.45;8.20;;;12.80;99.90;;;;;;5075787;28;20437;-62
2022/04/24 08:17:39;;;;;;;10.90;8.10;;;13.00;99.90;;;;;;5057839;28;20025;-63
2022/04/24 08:20:07;;;;;;;14.57;8.07;;;13.10;99.90;;;;;;5057843;28;20031;-64
2022/04/24 08:23:04;;;;;;;14.75;8.85;;;13.10;99.90;;;;;;5075562;28;20025;-63
2022/04/24 08:25:35;;;;;;;11.68;8.15;;;13.30;99.90;;;;;;5075770;28;20048;-62
2022/04/24 08:28:06;;;;;;;11.48;7.65;;;13.40;99.90;;;;;;5057735;28;20017;-63
2022/04/24 08:30:33;;;;;;;15.18;8.25;;;13.70;99.90;;;;;;5075732;28;20023;-62
2022/04/24 08:32:58;;;;;;;12.77;7.63;;;13.60;99.90;;;;;;5057348;28;20096;-62
2022/04/24 08:35:24;;;;;;;14.40;8.52;;;13.80;99.90;;;;;;5057821;28;20052;-63
2022/04/24 08:37:50;;;;;;;12.75;8.52;;;13.80;99.90;;;;;;5074465;28;20020;-63
2022/04/24 08:40:17;;;;;;;12.57;8.80;;;14.00;99.90;;;;;;5075461;28;20039;-63
2022/04/24 08:42:43;;;;;;;10.40;7.65;;;14.20;99.90;;;;;;5075176;28;20095;-63
2022/04/24 08:45:14;;;;;;;14.60;8.20;;;14.30;99.90;;;;;;5058427;28;20119;-62
2022/04/24 08:47:40;;;;;;;11.63;7.88;;;14.50;99.90;;;;;;5075319;28;20099;-60
2022/04/24 08:50:07;;;;;;;14.18;8.05;;;14.80;99.90;;;;;;5075252;28;20412;-63
2022/04/24 08:52:32;;;;;;;11.43;7.78;;;15.30;99.90;;;;;;5057542;28;20020;-60
2022/04/24 08:54:59;;;;;;;11.95;7.63;;;15.40;99.90;;;;;;5075055;28;20035;-62
2022/04/24 08:57:26;;;;;;;12.18;7.78;;;15.70;99.90;;;;;;5057492;28;20029;-62
2022/04/24 09:00:03;;;;;;;10.35;7.80;;;15.90;99.90;;;;;;5057664;28;20028;-62
2022/04/24 09:02:29;;;;;;;10.95;7.55;;;15.90;99.90;;;;;;5056895;28;20453;-62
2022/04/24 09:04:55;;;;;;;12.05;7.80;;;15.40;99.90;;;;;;5056961;28;20056;-62
2022/04/24 09:07:22;;;;;;;11.43;7.72;;;15.20;99.90;;;;;;5056863;28;20024;-62
2022/04/24 09:09:52;;;;;;;11.98;7.60;;;15.20;99.90;;;;;;5074999;28;20031;-62
2022/04/24 09:12:25;;;;;;;13.00;7.80;;;15.50;99.90;;;;;;5056977;28;20088;-62
2022/04/24 09:14:56;;;;;;;13.05;8.82;;;15.60;99.90;;;;;;5056851;28;20082;-61
2022/04/24 09:17:23;;;;;;;13.05;8.05;;;15.60;99.90;;;;;;5056607;28;20032;-62
2022/04/24 09:19:50;;;;;;;10.88;7.75;;;15.20;99.90;;;;;;5056419;28;20032;-61
2022/04/24 09:22:16;;;;;;;10.05;6.68;;;15.20;99.90;;;;;;5057180;28;20035;-62
2022/04/24 09:24:55;;;;;;;13.45;7.88;;;15.20;99.90;;;;;;5074351;28;20025;-62
2022/04/24 09:27:32;;;;;;;11.02;7.55;;;15.20;99.90;;;;;;5074420;28;20159;-62
2022/04/24 09:30:00;;;;;;;14.90;7.93;;;15.30;99.90;;;;;;5074232;28;20021;-62
2022/04/24 09:32:31;;;;;;;14.07;8.93;;;15.40;99.90;;;;;;5056601;28;20020;-62
2022/04/24 09:34:57;;;;;;;10.60;7.43;;;15.50;99.90;;;;;;5067680;28;20058;-62
2022/04/24 09:37:23;;;;;;;10.18;6.97;;;15.70;99.90;;;;;;5094359;28;20478;-62
2022/04/24 09:39:50;;;;;;;10.63;7.53;;;15.60;99.90;;;;;;5072660;28;20051;-62
2022/04/24 09:42:20;;;;;;;12.70;7.60;;;15.50;99.90;;;;;;5075722;28;20047;-61
2022/04/24 09:44:48;;;;;;;11.45;7.25;;;15.10;99.90;;;;;;5093765;28;20101;-62
2022/04/24 09:47:18;;;;;;;13.70;8.70;;;15.10;99.90;;;;;;5075744;28;20016;-59
2022/04/24 09:49:50;;;;;;;10.27;7.38;;;15.10;99.90;;;;;;5075967;28;20046;-62
2022/04/24 09:52:25;;;;;;;10.95;7.45;;;14.90;99.90;;;;;;5087664;28;20037;-61
2022/04/24 09:54:55;;;;;;;8.90;6.85;;;14.90;99.90;;;;;;5057184;28;20036;-62
2022/04/24 09:57:24;;;;;;;11.93;6.60;;;15.00;99.90;;;;;;5073855;28;20032;-61
2022/04/24 09:59:56;;;;;;;10.68;6.95;;;15.10;99.90;;;;;;5055726;28;20394;-62
2022/04/24 10:02:22;;;;;;;14.98;7.45;;;15.20;99.90;;;;;;5073766;28;20048;-62
2022/04/24 10:04:48;;;;;;;8.40;6.00;;;15.20;99.90;;;;;;5055978;28;20052;-62
2022/04/24 10:07:19;;;;;;;11.63;7.75;;;15.00;99.90;;;;;;5077904;28;20024;-62
2022/04/24 10:09:46;;;;;;;9.73;6.57;;;15.10;99.90;;;;;;5094036;28;20070;-61
2022/04/24 10:12:18;;;;;;;8.20;6.13;;;15.10;99.90;;;;;;5075600;28;20077;-62
2022/04/24 10:14:43;;;;;;;;;;;15.10;99.90;;;;;;5076086;28;20024;-61
2022/04/24 10:17:21;;;;;;;9.93;6.75;;;15.20;99.90;;;;;;5076446;28;19904;-62
2022/04/24 10:19:56;;;;;;;12.35;6.60;;;15.00;99.90;;;;;;5093798;28;20035;-62
2022/04/24 10:22:37;;;;;;;9.88;6.97;;;14.80;99.90;;;;;;5094070;28;20510;-62
2022/04/24 10:25:05;;;;;;;12.32;7.25;;;14.80;99.90;;;;;;5094244;28;20027;-62
2022/04/24 10:27:44;;;;;;;11.98;8.05;;;14.80;99.90;;;;;;5075796;28;20020;-61
2022/04/24 10:30:23;;;;;;;10.50;6.70;;;14.80;99.90;;;;;;5093815;28;20020;-62
2022/04/24 10:33:10;;;;;;;11.48;7.38;;;14.70;99.90;;;;;;5093583;28;20363;-62
2022/04/24 10:36:01;;;;;;;12.48;7.75;;;14.80;99.90;;;;;;5093441;28;20103;-61
2022/04/24 10:38:29;;;;;;;9.17;6.63;;;14.80;99.90;;;;;;5078570;28;20035;-59
2022/04/24 10:41:13;;;;;;;12.90;7.75;;;14.80;99.90;;;;;;5073135;28;20033;-63
2022/04/24 10:43:51;;;;;;;12.23;7.15;;;14.70;99.90;;;;;;5055254;28;20029;-61
2022/04/24 10:46:26;;;;;;;9.93;6.97;;;14.70;99.90;;;;;;5071549;28;20078;-59
2022/04/24 10:48:53;;;;;;;10.70;6.60;;;14.70;99.90;;;;;;5055590;28;20024;-61
2022/04/24 10:51:29;;;;;;;14.55;6.88;;;14.70;99.90;;;;;;5079119;28;20028;-62
2022/04/24 10:54:11;;;;;;;11.20;6.28;;;14.60;99.90;;;;;;5084151;28;20025;-62
2022/04/24 10:56:38;;;;;;;8.38;6.05;;;14.50;99.90;;;;;;5055227;28;20025;-62
2022/04/24 10:59:16;;;;;;;9.45;6.90;;;14.40;99.90;;;;;;5054969;28;20099;-61
2022/04/24 11:01:50;;;;;;;12.25;7.18;;;14.40;99.90;;;;;;5059302;28;20094;-62
2022/04/24 11:04:17;;;;;;;10.70;6.38;;;14.40;99.90;;;;;;5059184;28;20029;-62
2022/04/24 11:06:52;;;;;;;12.85;7.68;;;14.40;99.90;;;;;;5059044;28;20119;-63
2022/04/24 11:09:18;;;;;;;11.35;6.47;;;14.40;99.90;;;;;;5059379;28;20021;-62
2022/04/24 11:11:52;;;;;;;12.35;6.97;;;14.30;99.90;;;;;;5076821;28;20039;-62
2022/04/24 11:14:23;;;;;;;9.63;6.25;;;14.30;99.90;;;;;;5076891;28;20395;-62
2022/04/24 11:16:59;;;;;;;13.32;7.40;;;14.30;99.90;;;;;;5058835;28;20099;-62
2022/04/24 11:19:27;;;;;;;10.98;7.50;;;14.30;99.90;;;;;;5076803;28;20020;-62
2022/04/24 11:22:05;;;;;;;12.73;6.50;;;14.20;99.90;;;;;;5058486;28;20020;-60
2022/04/24 11:24:33;;;;;;;11.38;7.10;;;14.10;99.90;;;;;;5076562;28;20047;-61
2022/04/24 11:27:04;;;;;;;12.23;7.57;;;14.10;99.90;;;;;;5058893;28;20476;-62
2022/04/24 11:29:32;;;;;;;9.20;6.35;;;14.20;99.90;;;;;;5076518;28;20099;-62
2022/04/24 11:31:57;;;;;;;11.15;7.07;;;14.10;99.90;;;;;;5076509;28;20020;-62
2022/04/24 11:34:24;;;;;;;10.73;6.75;;;14.10;99.90;;;;;;5058573;28;20054;-62
2022/04/24 11:36:59;;;;;;;10.25;6.90;;;14.10;99.90;;;;;;5058465;28;20020;-60
2022/04/24 11:39:25;;;;;;;8.27;5.93;;;14.10;99.90;;;;;;5076691;28;20048;-62
2022/04/24 11:41:52;;;;;;;10.10;6.47;;;14.10;99.90;;;;;;5059494;28;20024;-60
2022/04/24 11:50:13;;;;;;;14.15;6.68;;;14.20;99.90;;;;;;5076742;28;20417;-62
2022/04/24 11:52:49;;;;;;;9.48;5.38;;;14.10;99.90;;;;;;5068302;28;20016;-62
2022/04/24 11:55:22;;;;;;;9.77;5.78;;;14.10;99.90;;;;;;5078686;28;20123;-62
2022/04/24 11:58:08;;;;;;;7.72;5.88;;;14.10;99.90;;;;;;5078918;28;20024;-62
2022/04/24 12:00:37;;;;;;;8.07;5.45;;;14.10;99.90;;;;;;5096201;28;20016;-62
2022/04/24 12:03:06;;;;;;;7.40;5.15;;;14.20;99.90;;;;;;5078606;28;20035;-62
2022/04/24 12:05:32;;;;;;;9.80;5.25;;;14.20;99.90;;;;;;5096404;28;20031;-61
2022/04/24 12:07:58;;;;;;;7.15;4.60;;;14.20;99.90;;;;;;5096338;28;20020;-61
2022/04/24 12:10:25;;;;;;;9.13;5.68;;;14.20;99.90;;;;;;5096013;28;20020;-61
2022/04/24 12:12:52;;;;;;;7.80;5.20;;;14.20;99.90;;;;;;5094579;28;20024;-61
2022/04/24 12:15:20;;;;;;;9.02;5.93;;;14.20;99.90;;;;;;5095848;28;20142;-62
2022/04/24 12:17:52;;;;;;;7.15;5.40;;;14.30;99.90;;;;;;5096050;28;20028;-62
2022/04/24 12:20:18;;;;;;;11.85;6.07;;;14.30;99.90;;;;;;5096107;28;20024;-62
2022/04/24 12:22:44;;;;;;;14.90;5.55;;;14.30;99.90;;;;;;5095743;28;20028;-62
2022/04/24 12:25:12;;;;;;;7.90;5.20;;;14.40;99.90;;;;;;5095725;28;20024;-62
2022/04/24 12:27:38;;;;;;;8.35;5.85;;;14.40;99.90;;;;;;5095983;28;20024;-62
2022/04/24 12:30:06;;;;;;;14.05;5.38;;;14.40;99.90;;;;;;5077642;28;20113;-62
2022/04/24 12:32:34;;;;;;;7.28;5.07;;;14.40;99.90;;;;;;5077410;28;20044;-62
2022/04/24 12:35:00;;;;;;;8.43;5.57;;;14.40;99.90;;;;;;5078511;28;20024;-62
2022/04/24 12:37:33;;;;;;;6.78;5.05;;;14.50;99.90;;;;;;5077337;28;20028;-62
2022/04/24 12:40:00;;;;;;;8.68;5.20;;;14.50;99.90;;;;;;5077695;28;20028;-61
2022/04/24 12:42:26;;;;;;;9.73;6.07;;;14.60;99.90;;;;;;5095450;28;20028;-61
2022/04/24 12:44:53;;;;;;;9.02;6.35;;;14.70;99.90;;;;;;5095601;28;20020;-62
2022/04/24 12:47:20;;;;;;;9.07;5.75;;;14.70;99.90;;;;;;5095326;28;20371;-61
2022/04/24 12:49:47;;;;;;;7.45;5.25;;;14.80;99.90;;;;;;5095406;28;20027;-62
2022/04/24 12:52:13;;;;;;;10.20;5.10;;;14.80;99.90;;;;;;5077177;28;20020;-62